Airport Name : Kosice

Other Name : Kosice

ICAO : LZKZ

IATA : KSC

FAA :

Latitude : 48.663055

Longitude : 21.241112

Country : Slovakia

Local Date and Time : 11/20/2018 10:54:00 PM

 

TAF (Terminal Aerodrome Forecast)

TAF LZKZ 201700Z 2018/2118 02010KT 6000 -RA SCT015 OVC040 TEMPO 2018/2100 2400 RA OVC012 BECMG 2100/2102 NSW SCT010 BKN040 PROB30 TEMPO 2101/2108 VRB02KT 0800 FG BKN003

 

METAR (METeorological Aerodrome Report)

LZKZ 202130Z 02008KT 9999 -RA OVC025 04/02 Q1015

LZKZ 202100Z 01007KT 9999 -RA OVC026 04/02 Q1015

LZKZ 202030Z 01009KT 9999 -RA OVC026 04/02 Q1015

LZKZ 202000Z 02010KT 9999 -RA OVC025 04/02 Q1015

LZKZ 201930Z 03009KT 9999 -RA OVC030 04/02 Q1015

LZKZ 201900Z 02008KT 9999 -RA OVC030 04/02 Q1015

LZKZ 201830Z 02008KT 9999 -RA BKN030 OVC045 04/02 Q1015

LZKZ 201800Z 02008KT 9999 -RA SCT030 OVC045 04/03 Q1015